Time;durP1;ratioP1;P1;durP2;ratioP2;P2;SDS_P1;SDS_P2;PMS_P1;PMS_P2;Temp;Humidity;BMP_temperature;BMP_pressure;BME280_temperature;BME280_humidity;BME280_pressure;Samples;Min_cycle;Max_cycle;Signal;HPM_P1;HPM_P2
2022/02/28 00:00:31;;;;;;;6.00;3.20;;;5.00;99.90;;;;;;5047418;28;20459;-80
2022/02/28 00:02:58;;;;;;;5.80;3.50;;;5.00;99.90;;;;;;5047435;28;20461;-80
2022/02/28 00:05:25;;;;;;;6.50;3.10;;;4.90;99.90;;;;;;5047119;28;20444;-80
2022/02/28 00:07:53;;;;;;;5.73;3.50;;;5.00;99.90;;;;;;5047467;28;20460;-80
2022/02/28 00:10:20;;;;;;;9.20;3.40;;;4.90;99.90;;;;;;5047881;28;20454;-80
2022/02/28 00:12:47;;;;;;;5.00;3.10;;;4.90;99.90;;;;;;5048124;28;20452;-80
2022/02/28 00:15:17;;;;;;;5.07;3.50;;;4.80;99.90;;;;;;5047167;28;20491;-79
2022/02/28 00:17:44;;;;;;;6.03;3.80;;;4.90;99.90;;;;;;5047490;28;20453;-80
2022/02/28 00:20:12;;;;;;;4.27;3.17;;;4.90;99.90;;;;;;5048029;28;20523;-79
2022/02/28 00:22:40;;;;;;;6.83;3.27;;;4.90;99.90;;;;;;5048541;28;20456;-79
2022/02/28 00:25:10;;;;;;;4.10;2.80;;;4.80;99.90;;;;;;5046302;28;20479;-80
2022/02/28 00:27:37;;;;;;;7.90;4.17;;;4.60;99.90;;;;;;5049282;28;20462;-80
2022/02/28 00:30:08;;;;;;;5.70;3.10;;;4.60;99.90;;;;;;5047527;28;20879;-80
2022/02/28 00:32:35;;;;;;;6.00;3.13;;;4.50;99.90;;;;;;5048693;28;20453;-80
2022/02/28 00:35:03;;;;;;;8.97;4.00;;;4.40;99.90;;;;;;5047724;28;20488;-80
2022/02/28 00:37:30;;;;;;;7.17;3.80;;;4.40;99.90;;;;;;5049289;28;20951;-80
2022/02/28 00:39:57;;;;;;;5.57;3.20;;;4.20;99.90;;;;;;5048751;28;20510;-79
2022/02/28 00:42:25;;;;;;;5.80;3.27;;;4.50;99.90;;;;;;5050011;28;20451;-79
2022/02/28 00:44:53;;;;;;;5.33;3.27;;;4.50;99.90;;;;;;5048691;28;20446;-80
2022/02/28 00:47:19;;;;;;;5.03;3.30;;;4.50;99.90;;;;;;5050284;28;20459;-80
2022/02/28 00:49:46;;;;;;;6.47;3.87;;;4.30;99.90;;;;;;5049496;28;20842;-80
2022/02/28 00:52:13;;;;;;;5.80;3.13;;;4.20;99.90;;;;;;5050322;28;20463;-80
2022/02/28 00:54:40;;;;;;;5.77;3.93;;;4.40;99.90;;;;;;5048612;28;20483;-79
2022/02/28 00:57:07;;;;;;;5.10;3.60;;;4.40;99.90;;;;;;5049675;28;20490;-80
2022/02/28 00:59:35;;;;;;;7.20;3.73;;;4.40;99.90;;;;;;5047193;28;20506;-80
2022/02/28 01:02:02;;;;;;;7.40;3.43;;;4.40;99.90;;;;;;5048858;28;20544;-79
2022/02/28 01:04:28;;;;;;;6.17;3.53;;;4.30;99.90;;;;;;5047615;28;20507;-79
2022/02/28 01:06:55;;;;;;;7.43;4.30;;;4.20;99.90;;;;;;5049310;28;20465;-80
2022/02/28 01:09:22;;;;;;;5.20;2.90;;;4.10;99.90;;;;;;5046824;28;20998;-80
2022/02/28 01:11:49;;;;;;;4.83;3.63;;;4.10;99.90;;;;;;5047785;28;20533;-81
2022/02/28 01:14:16;;;;;;;6.20;3.57;;;3.90;99.90;;;;;;5045331;28;21027;-80
2022/02/28 01:16:44;;;;;;;5.73;3.60;;;3.70;99.90;;;;;;5047060;28;20480;-78
2022/02/28 01:19:10;;;;;;;7.50;3.80;;;3.70;99.90;;;;;;5046215;28;20474;-78
2022/02/28 01:21:37;;;;;;;8.53;3.90;;;3.70;99.90;;;;;;5046362;28;20464;-79
2022/02/28 01:24:05;;;;;;;9.60;4.47;;;3.60;99.90;;;;;;5045596;28;20441;-79
2022/02/28 01:26:31;;;;;;;5.20;3.27;;;3.50;99.90;;;;;;5043961;28;20440;-79
2022/02/28 01:28:58;;;;;;;6.30;3.47;;;3.50;99.90;;;;;;5046167;28;20480;-79
2022/02/28 01:31:25;;;;;;;5.87;4.23;;;3.40;99.90;;;;;;5044666;28;20453;-79
2022/02/28 01:33:53;;;;;;;5.10;3.80;;;3.30;99.90;;;;;;5045737;28;20491;-78
2022/02/28 01:36:20;;;;;;;6.77;4.00;;;3.60;99.90;;;;;;5045227;28;20460;-78
2022/02/28 01:38:47;;;;;;;4.30;3.50;;;3.60;99.90;;;;;;5044964;28;20475;-78
2022/02/28 01:41:14;;;;;;;5.50;3.80;;;3.60;99.90;;;;;;5045682;28;20450;-79
2022/02/28 01:43:40;;;;;;;5.93;3.30;;;3.50;99.90;;;;;;5043951;28;20456;-79
2022/02/28 01:46:07;;;;;;;6.33;3.63;;;3.40;99.90;;;;;;5045553;28;20499;-79
2022/02/28 01:48:34;;;;;;;8.30;3.57;;;3.40;99.90;;;;;;5046719;28;20505;-79
2022/02/28 01:51:02;;;;;;;6.67;3.53;;;3.20;99.90;;;;;;5045546;28;20491;-79
2022/02/28 01:53:29;;;;;;;6.70;3.57;;;3.30;99.90;;;;;;5043117;28;20466;-78
2022/02/28 01:55:56;;;;;;;4.87;3.60;;;3.20;99.90;;;;;;5041803;28;20488;-78
2022/02/28 01:58:23;;;;;;;4.37;3.13;;;3.20;99.90;;;;;;5044310;28;20473;-79
2022/02/28 02:00:50;;;;;;;5.53;3.10;;;3.20;99.90;;;;;;5044487;28;20468;-79
2022/02/28 02:03:16;;;;;;;4.63;3.20;;;3.20;99.90;;;;;;5044462;28;20457;-78
2022/02/28 02:05:43;;;;;;;6.73;3.60;;;3.00;99.90;;;;;;5045680;28;20457;-79
2022/02/28 02:08:12;;;;;;;6.10;3.50;;;3.00;99.90;;;;;;5045512;28;20476;-78
2022/02/28 02:10:39;;;;;;;6.80;3.83;;;2.90;99.90;;;;;;5044616;28;20477;-78
2022/02/28 02:13:06;;;;;;;5.43;3.70;;;2.90;99.90;;;;;;5043728;28;20461;-78
2022/02/28 02:15:33;;;;;;;7.30;4.33;;;2.80;99.90;;;;;;5046295;28;20480;-79
2022/02/28 02:18:04;;;;;;;7.23;4.00;;;2.80;99.90;;;;;;5044694;28;20456;-79
2022/02/28 02:20:37;;;;;;;4.43;3.60;;;2.70;99.90;;;;;;5045175;28;20457;-79
2022/02/28 02:23:07;;;;;;;5.60;3.07;;;2.50;99.90;;;;;;5043047;28;20453;-78
2022/02/28 02:25:34;;;;;;;4.57;3.13;;;2.50;99.90;;;;;;5044049;28;20447;-78
2022/02/28 02:28:01;;;;;;;5.70;3.67;;;2.50;99.90;;;;;;5043594;28;20841;-79
2022/02/28 02:30:28;;;;;;;6.67;3.53;;;2.40;99.90;;;;;;5046739;28;20445;-79
2022/02/28 02:32:54;;;;;;;5.67;3.47;;;2.40;99.90;;;;;;5049000;28;20448;-78
2022/02/28 02:35:21;;;;;;;6.20;3.63;;;2.40;99.90;;;;;;5046621;28;21026;-78
2022/02/28 02:37:50;;;;;;;6.87;3.60;;;2.30;99.90;;;;;;5049018;28;20479;-79
2022/02/28 02:40:17;;;;;;;9.27;3.77;;;2.30;99.90;;;;;;5047570;28;20483;-79
2022/02/28 02:42:44;;;;;;;6.23;3.83;;;2.20;99.90;;;;;;5049200;28;20541;-79
2022/02/28 02:45:10;;;;;;;5.10;3.20;;;2.10;99.90;;;;;;5047957;28;20457;-78
2022/02/28 02:47:37;;;;;;;7.00;3.57;;;2.10;99.90;;;;;;5049854;28;20520;-79
2022/02/28 02:50:05;;;;;;;5.87;3.30;;;2.00;99.90;;;;;;5048277;28;20483;-79
2022/02/28 02:52:32;;;;;;;5.47;4.00;;;2.00;99.90;;;;;;5048040;28;20460;-78
2022/02/28 02:55:00;;;;;;;5.93;3.80;;;2.00;99.90;;;;;;5046996;28;20480;-78
2022/02/28 02:57:27;;;;;;;6.07;3.67;;;1.90;99.90;;;;;;5048831;28;20462;-79
2022/02/28 02:59:54;;;;;;;4.70;3.33;;;1.80;99.90;;;;;;5049002;28;20465;-79
2022/02/28 03:02:20;;;;;;;6.93;3.50;;;1.70;99.90;;;;;;5046053;28;20543;-77
2022/02/28 03:04:47;;;;;;;5.57;3.50;;;1.80;99.90;;;;;;5044352;28;20449;-79
2022/02/28 03:07:15;;;;;;;7.37;4.00;;;1.70;99.90;;;;;;5046330;28;20559;-78
2022/02/28 03:09:42;;;;;;;4.60;3.20;;;1.60;99.90;;;;;;5046611;28;20483;-78
2022/02/28 03:12:11;;;;;;;5.33;3.30;;;1.60;99.90;;;;;;5043809;28;20456;-78
2022/02/28 03:14:38;;;;;;;4.97;3.23;;;1.60;99.90;;;;;;5041988;28;20548;-77
2022/02/28 03:17:05;;;;;;;6.13;4.20;;;1.60;99.90;;;;;;5042938;28;20456;-78
2022/02/28 03:19:32;;;;;;;7.67;3.67;;;1.50;99.90;;;;;;5043177;28;20479;-79
2022/02/28 03:21:59;;;;;;;6.30;4.00;;;1.50;99.90;;;;;;5044972;28;20457;-78
2022/02/28 03:24:26;;;;;;;5.70;3.80;;;1.50;99.90;;;;;;5044143;28;20457;-78
2022/02/28 03:26:53;;;;;;;6.40;4.03;;;1.40;99.90;;;;;;5045352;28;20463;-79
2022/02/28 03:29:21;;;;;;;7.00;3.87;;;1.40;99.90;;;;;;5043248;28;20483;-80
2022/02/28 03:31:48;;;;;;;7.53;4.10;;;1.40;99.90;;;;;;5050531;28;20460;-78
2022/02/28 03:34:14;;;;;;;7.07;4.57;;;1.40;99.90;;;;;;5053824;28;20486;-78
2022/02/28 03:36:41;;;;;;;7.10;3.65;;;1.30;99.90;;;;;;5060162;28;20457;-79
2022/02/28 03:39:08;;;;;;;6.68;4.20;;;1.30;99.90;;;;;;5045751;28;20230;-79
2022/02/28 03:41:35;;;;;;;5.70;4.30;;;1.20;99.90;;;;;;5044741;28;20233;-78
2022/02/28 03:44:01;;;;;;;7.00;4.15;;;1.10;99.90;;;;;;5044654;28;20475;-78
2022/02/28 03:46:30;;;;;;;6.43;3.50;;;1.10;99.90;;;;;;5044665;28;20212;-78
2022/02/28 03:48:56;;;;;;;6.70;4.40;;;1.10;99.90;;;;;;5046401;28;20477;-77
2022/02/28 03:51:23;;;;;;;5.60;3.13;;;1.10;99.90;;;;;;5041291;28;20658;-77
2022/02/28 03:53:50;;;;;;;4.80;3.30;;;1.10;99.90;;;;;;5044590;28;20551;-78
2022/02/28 03:56:17;;;;;;;6.03;3.77;;;1.00;99.90;;;;;;5045603;28;20232;-79
2022/02/28 03:58:45;;;;;;;5.05;3.33;;;1.00;99.90;;;;;;5045183;28;20523;-79
2022/02/28 04:01:12;;;;;;;9.45;5.40;;;1.00;99.90;;;;;;5044439;28;20591;-78
2022/02/28 04:03:40;;;;;;;6.78;4.07;;;1.00;99.90;;;;;;5042740;28;20268;-79
2022/02/28 04:06:07;;;;;;;7.10;3.77;;;0.90;99.90;;;;;;5043430;28;20237;-78
2022/02/28 04:08:34;;;;;;;7.53;4.05;;;0.80;99.90;;;;;;5043281;28;20484;-78
2022/02/28 04:11:01;;;;;;;8.07;3.80;;;0.90;99.90;;;;;;5045649;28;20224;-78
2022/02/28 04:13:28;;;;;;;5.87;4.00;;;0.80;99.90;;;;;;5043275;28;20202;-80
2022/02/28 04:15:55;;;;;;;7.93;4.80;;;0.80;99.90;;;;;;5047393;28;20512;-79
2022/02/28 04:18:21;;;;;;;7.03;4.15;;;0.80;99.90;;;;;;5047657;28;20233;-78
2022/02/28 04:20:50;;;;;;;8.63;4.70;;;0.80;99.90;;;;;;5046880;28;20232;-78
2022/02/28 04:23:17;;;;;;;6.30;4.22;;;0.70;99.90;;;;;;5046148;28;20985;-78
2022/02/28 04:25:44;;;;;;;7.80;4.70;;;0.70;99.90;;;;;;5047174;28;20235;-79
2022/02/28 04:28:11;;;;;;;6.10;3.60;;;0.70;99.90;;;;;;5046707;28;20261;-78
2022/02/28 04:30:37;;;;;;;7.30;4.15;;;0.60;99.90;;;;;;5047531;28;20452;-79
2022/02/28 04:33:04;;;;;;;7.80;3.85;;;0.60;99.90;;;;;;5045916;28;20273;-79
2022/02/28 04:35:31;;;;;;;5.85;4.00;;;0.60;99.90;;;;;;5047689;28;20228;-79
2022/02/28 04:38:01;;;;;;;7.30;4.13;;;0.50;99.90;;;;;;5046400;28;20221;-78
2022/02/28 04:40:32;;;;;;;7.05;4.80;;;0.50;99.90;;;;;;5046048;28;20205;-78
2022/02/28 04:42:58;;;;;;;5.03;4.25;;;0.50;99.90;;;;;;5041888;28;20573;-78
2022/02/28 04:45:25;;;;;;;7.47;4.32;;;0.50;99.90;;;;;;5035779;28;20233;-80
2022/02/28 04:47:52;;;;;;;7.13;3.95;;;0.40;99.90;;;;;;5035674;28;20198;-79
2022/02/28 04:50:19;;;;;;;7.25;4.70;;;0.40;99.90;;;;;;5035321;28;20205;-80
2022/02/28 04:52:46;;;;;;;8.32;5.18;;;0.40;99.90;;;;;;5036088;28;20225;-79
2022/02/28 04:55:14;;;;;;;9.68;5.10;;;0.40;99.90;;;;;;5036578;28;20293;-80
2022/02/28 04:57:43;;;;;;;8.48;3.85;;;0.30;99.90;;;;;;5035918;28;20209;-80
2022/02/28 05:00:11;;;;;;;9.60;4.85;;;0.30;99.90;;;;;;5036749;28;20273;-80
2022/02/28 05:02:39;;;;;;;9.75;5.30;;;0.30;99.90;;;;;;5036571;28;20216;-80
2022/02/28 05:05:06;;;;;;;7.65;5.05;;;0.30;99.90;;;;;;5035506;28;20225;-80
2022/02/28 05:07:33;;;;;;;8.13;5.50;;;0.20;99.90;;;;;;5036732;28;20701;-80
2022/02/28 05:10:00;;;;;;;6.28;4.53;;;0.20;99.90;;;;;;5035973;28;20228;-79
2022/02/28 05:12:28;;;;;;;9.05;5.15;;;0.20;99.90;;;;;;5037684;28;20217;-80
2022/02/28 05:14:55;;;;;;;9.15;5.03;;;0.20;99.90;;;;;;5035984;28;20234;-80
2022/02/28 05:17:21;;;;;;;7.45;4.60;;;0.20;99.90;;;;;;5038112;28;20209;-80
2022/02/28 05:19:48;;;;;;;7.68;4.40;;;0.20;99.90;;;;;;5037333;28;20218;-79
2022/02/28 05:22:15;;;;;;;7.50;4.85;;;0.10;99.90;;;;;;5037579;28;20210;-79
2022/02/28 05:24:42;;;;;;;9.93;5.60;;;0.10;99.90;;;;;;5036877;28;20214;-80
2022/02/28 05:27:09;;;;;;;10.07;4.53;;;0.00;99.90;;;;;;5037964;28;20205;-79
2022/02/28 05:29:38;;;;;;;8.88;5.60;;;0.10;99.90;;;;;;5037800;28;20232;-79
2022/02/28 05:32:07;;;;;;;10.57;6.68;;;0.00;99.90;;;;;;5037482;28;20190;-79
2022/02/28 05:34:34;;;;;;;10.40;4.88;;;0.10;99.90;;;;;;5036266;28;20568;-80
2022/02/28 05:37:01;;;;;;;10.95;5.40;;;0.00;99.90;;;;;;5037883;28;20211;-79
2022/02/28 05:39:28;;;;;;;8.85;5.30;;;0.00;99.90;;;;;;5036183;28;20703;-80
2022/02/28 05:41:55;;;;;;;8.75;5.50;;;-0.10;99.90;;;;;;5036762;28;20308;-80
2022/02/28 05:44:22;;;;;;;7.75;5.07;;;-0.10;99.90;;;;;;5035604;28;20198;-81
2022/02/28 05:46:50;;;;;;;5.03;2.47;;;-0.10;99.90;;;;;;5043685;28;20240;-83
2022/02/28 05:49:17;;;;;;;10.30;5.13;;;4.60;99.90;;;;;;5043053;28;20444;-82
2022/02/28 05:51:43;;;;;;;6.97;5.63;;;5.70;99.90;;;;;;5038375;28;20523;-81
2022/02/28 05:54:10;;;;;;;9.70;5.67;;;4.30;99.90;;;;;;5037502;28;20464;-82
2022/02/28 05:56:37;;;;;;;10.90;5.33;;;3.40;99.90;;;;;;5036543;28;20965;-81
2022/02/28 05:59:04;;;;;;;6.90;5.20;;;2.80;99.90;;;;;;5036965;28;20471;-81
2022/02/28 06:01:32;;;;;;;8.30;4.97;;;2.30;99.90;;;;;;5037349;28;20818;-81
2022/02/28 06:04:00;;;;;;;9.43;5.70;;;1.90;99.90;;;;;;5036363;28;20445;-81
2022/02/28 06:06:26;;;;;;;9.20;5.23;;;1.50;99.90;;;;;;5036722;28;20997;-81
2022/02/28 06:08:53;;;;;;;11.63;5.93;;;1.30;99.90;;;;;;5037899;28;20472;-81
2022/02/28 06:11:20;;;;;;;11.43;5.75;;;1.00;99.90;;;;;;5035464;28;20459;-80
2022/02/28 06:13:47;;;;;;;9.53;5.00;;;0.80;99.90;;;;;;5029837;28;20509;-81
2022/02/28 06:16:14;;;;;;;12.57;6.03;;;0.70;99.90;;;;;;5034826;28;20464;-82
2022/02/28 06:18:40;;;;;;;10.43;6.07;;;0.60;99.90;;;;;;5034272;28;20465;-80
2022/02/28 06:21:09;;;;;;;7.13;5.20;;;0.50;99.90;;;;;;5034191;28;20510;-81
2022/02/28 06:23:35;;;;;;;9.10;6.40;;;0.40;99.90;;;;;;5033722;28;20459;-82
2022/02/28 06:26:02;;;;;;;9.77;5.38;;;0.40;99.90;;;;;;5021758;28;20253;-81
2022/02/28 06:28:32;;;;;;;12.80;6.35;;;0.30;99.90;;;;;;5035718;28;20332;-82
2022/02/28 06:30:59;;;;;;;9.23;4.90;;;0.20;99.90;;;;;;5036869;28;20362;-81
2022/02/28 06:33:26;;;;;;;8.85;5.60;;;0.20;99.90;;;;;;5034774;28;20727;-82
2022/02/28 06:35:53;;;;;;;9.23;6.20;;;0.20;99.90;;;;;;5035501;28;20198;-82
2022/02/28 06:38:22;;;;;;;10.00;6.10;;;0.10;99.90;;;;;;5035509;28;20732;-81
2022/02/28 06:40:50;;;;;;;11.38;5.35;;;0.00;99.90;;;;;;5036460;28;20989;-81
2022/02/28 06:43:20;;;;;;;8.40;5.25;;;0.00;99.90;;;;;;5035284;28;20452;-82
2022/02/28 06:45:48;;;;;;;10.85;6.40;;;0.00;99.90;;;;;;5035304;28;20256;-81
2022/02/28 06:48:16;;;;;;;13.50;7.80;;;0.10;99.90;;;;;;5036055;28;20222;-81
2022/02/28 06:50:44;;;;;;;7.53;5.95;;;0.10;99.90;;;;;;5035394;28;20204;-81
2022/02/28 06:53:11;;;;;;;13.32;6.15;;;0.10;99.90;;;;;;5035284;28;20613;-81
2022/02/28 06:55:40;;;;;;;12.57;6.95;;;0.10;99.90;;;;;;5025035;28;20285;-82
2022/02/28 06:58:07;;;;;;;12.35;7.07;;;0.10;99.90;;;;;;5031954;28;20257;-81
2022/02/28 07:00:34;;;;;;;9.35;5.50;;;0.20;99.90;;;;;;5035868;28;20240;-81
2022/02/28 07:03:01;;;;;;;8.85;6.30;;;0.20;99.90;;;;;;5035123;28;20204;-80
2022/02/28 07:05:28;;;;;;;11.55;6.55;;;0.20;99.90;;;;;;5034047;28;20280;-81
2022/02/28 07:07:55;;;;;;;9.38;5.97;;;0.30;99.90;;;;;;5032995;28;20210;-82
2022/02/28 07:10:23;;;;;;;11.55;5.68;;;0.30;99.90;;;;;;5032007;28;20232;-83
2022/02/28 07:12:51;;;;;;;12.65;6.47;;;0.40;99.90;;;;;;5036378;28;20225;-82
2022/02/28 07:15:18;;;;;;;12.70;6.70;;;0.40;99.90;;;;;;5036378;28;20206;-83
2022/02/28 07:17:44;;;;;;;9.52;6.05;;;0.40;99.90;;;;;;5039013;28;20206;-83
2022/02/28 07:20:12;;;;;;;9.43;6.05;;;0.50;99.90;;;;;;5040683;28;20210;-81
2022/02/28 07:22:39;;;;;;;10.20;6.93;;;0.50;99.90;;;;;;5040909;28;20213;-82
2022/02/28 07:25:06;;;;;;;8.93;6.40;;;0.60;99.90;;;;;;5038272;28;20210;-81
2022/02/28 07:27:33;;;;;;;12.25;7.07;;;0.70;99.90;;;;;;5039158;28;20233;-81
2022/02/28 07:30:01;;;;;;;16.05;7.55;;;0.80;99.90;;;;;;5038481;28;20322;-82
2022/02/28 07:32:28;;;;;;;11.68;5.90;;;0.80;99.90;;;;;;5037232;28;20202;-81
2022/02/28 07:34:55;;;;;;;12.93;7.20;;;0.90;99.90;;;;;;5037895;28;20322;-82
2022/02/28 07:37:22;;;;;;;9.23;5.83;;;1.00;99.90;;;;;;5037817;28;20457;-82
2022/02/28 07:39:48;;;;;;;11.50;6.00;;;1.10;99.90;;;;;;5038339;28;20540;-82
2022/02/28 07:42:15;;;;;;;11.80;6.47;;;1.20;99.90;;;;;;5038950;28;20457;-81
2022/02/28 07:44:42;;;;;;;10.07;6.53;;;1.30;99.90;;;;;;5039209;28;20880;-81
2022/02/28 07:47:10;;;;;;;15.10;7.40;;;1.40;99.90;;;;;;5038553;28;20488;-82
2022/02/28 07:49:39;;;;;;;13.50;7.13;;;1.50;99.90;;;;;;5037982;28;20507;-81
2022/02/28 07:52:06;;;;;;;11.90;6.77;;;1.60;99.90;;;;;;5038466;28;20476;-81
2022/02/28 07:54:33;;;;;;;9.77;7.47;;;1.70;99.90;;;;;;5028798;28;20475;-81
2022/02/28 07:57:00;;;;;;;13.50;6.57;;;1.90;99.90;;;;;;5048993;28;20467;-83
2022/02/28 07:59:27;;;;;;;14.70;6.80;;;1.90;99.90;;;;;;5043688;28;20488;-82
2022/02/28 08:01:53;;;;;;;10.73;6.93;;;2.00;99.90;;;;;;5034263;28;20458;-80
2022/02/28 08:04:25;;;;;;;9.50;4.97;;;2.20;99.90;;;;;;5030273;28;20452;-83
2022/02/28 08:06:52;;;;;;;10.17;7.07;;;2.40;99.90;;;;;;5037436;28;20496;-83
2022/02/28 08:09:19;;;;;;;9.30;5.80;;;2.70;99.90;;;;;;5034211;28;21074;-82
2022/02/28 08:11:46;;;;;;;9.63;6.10;;;2.80;99.90;;;;;;5036629;28;20454;-82
2022/02/28 08:14:13;;;;;;;11.07;6.50;;;3.00;99.90;;;;;;5032666;28;20529;-84
2022/02/28 08:16:40;;;;;;;9.77;6.13;;;3.20;99.90;;;;;;5032981;28;20448;-82
2022/02/28 08:19:06;;;;;;;8.20;5.40;;;3.50;99.90;;;;;;5030454;28;20468;-82
2022/02/28 08:21:34;;;;;;;11.97;6.70;;;3.70;99.90;;;;;;5036910;28;20449;-81
2022/02/28 08:24:11;;;;;;;;;;;;;;;;;;;;;
2022/02/28 08:26:38;;;;;;;13.67;6.27;;;4.10;99.90;;;;;;5020843;28;20473;-82
2022/02/28 08:29:05;;;;;;;8.70;5.53;;;4.20;99.90;;;;;;5035233;28;20650;-85
2022/02/28 08:31:32;;;;;;;7.67;5.77;;;4.40;99.90;;;;;;5037914;28;20455;-83
2022/02/28 08:33:59;;;;;;;10.23;5.77;;;4.50;99.90;;;;;;5037260;28;20469;-85
2022/02/28 08:36:26;;;;;;;7.70;5.27;;;5.00;99.90;;;;;;5038816;28;20537;-83
2022/02/28 08:38:54;;;;;;;11.23;5.93;;;5.50;99.90;;;;;;5038023;28;20489;-82
2022/02/28 08:41:20;;;;;;;8.10;5.90;;;5.90;99.90;;;;;;5039894;28;20454;-83
2022/02/28 08:43:47;;;;;;;10.33;5.80;;;6.00;99.90;;;;;;5038133;28;20453;-83
2022/02/28 08:46:14;;;;;;;10.43;6.00;;;6.10;99.90;;;;;;5039347;28;20490;-83
2022/02/28 08:48:41;;;;;;;12.20;4.97;;;6.10;99.90;;;;;;5036765;28;20547;-84
2022/02/28 08:51:08;;;;;;;11.47;5.17;;;6.40;99.90;;;;;;5037992;28;20495;-81
2022/02/28 08:53:35;;;;;;;10.23;6.00;;;6.70;99.90;;;;;;5029959;28;20485;-82
2022/02/28 08:56:03;;;;;;;10.57;6.00;;;7.00;99.90;;;;;;5035853;28;20464;-82
2022/02/28 08:58:30;;;;;;;8.93;5.17;;;7.50;99.90;;;;;;5036666;28;21035;-81
2022/02/28 09:00:57;;;;;;;7.70;5.43;;;8.30;99.90;;;;;;5035975;28;20543;-83
2022/02/28 09:03:23;;;;;;;9.60;5.57;;;8.70;99.90;;;;;;5035589;28;20465;-83
2022/02/28 09:05:50;;;;;;;10.07;5.80;;;9.20;99.90;;;;;;5036149;28;21202;-81
2022/02/28 09:08:17;;;;;;;9.60;5.53;;;9.50;99.90;;;;;;5036363;28;20492;-82
2022/02/28 09:10:44;;;;;;;8.60;6.73;;;10.40;99.90;;;;;;5036289;28;20462;-83
2022/02/28 09:13:12;;;;;;;8.30;6.03;;;11.40;99.90;;;;;;5034115;28;20514;-81
2022/02/28 09:15:39;;;;;;;8.33;5.00;;;11.80;93.30;;;;;;5037011;28;20448;-82
2022/02/28 09:18:08;;;;;;;8.73;5.57;;;12.30;90.20;;;;;;5035996;28;20511;-81
2022/02/28 09:20:35;;;;;;;8.37;5.80;;;12.50;86.20;;;;;;5035029;28;20459;-81
2022/02/28 09:23:02;;;;;;;7.70;5.73;;;12.90;77.60;;;;;;5034315;28;20548;-81
2022/02/28 09:25:28;;;;;;;7.83;4.90;;;13.30;72.00;;;;;;5036100;28;20456;-82
2022/02/28 09:27:56;;;;;;;7.00;5.00;;;13.30;70.00;;;;;;5035433;28;20490;-82
2022/02/28 09:30:24;;;;;;;9.23;5.37;;;13.30;70.80;;;;;;5033250;28;20463;-82
2022/02/28 09:32:52;;;;;;;6.77;5.57;;;13.40;69.30;;;;;;5023498;28;20460;-81
2022/02/28 09:35:19;;;;;;;6.70;5.23;;;14.50;66.50;;;;;;5034880;28;20464;-83
2022/02/28 09:37:45;;;;;;;7.30;5.47;;;16.30;61.70;;;;;;5035721;28;20897;-82
2022/02/28 09:40:13;;;;;;;6.47;4.80;;;16.80;56.20;;;;;;5034846;28;20520;-83
2022/02/28 09:42:41;;;;;;;8.40;5.33;;;17.50;53.40;;;;;;5044251;28;20491;-82
2022/02/28 09:45:09;;;;;;;6.27;5.10;;;18.60;53.90;;;;;;5039869;28;20466;-84
2022/02/28 09:47:38;;;;;;;6.23;5.20;;;19.30;50.40;;;;;;5037874;28;20481;-82
2022/02/28 09:50:06;;;;;;;5.17;4.53;;;19.30;48.60;;;;;;5036893;28;21086;-82
2022/02/28 09:52:33;;;;;;;6.43;4.30;;;19.40;47.20;;;;;;5037145;28;20461;-83
2022/02/28 09:55:00;;;;;;;5.93;4.70;;;20.50;47.20;;;;;;5034176;28;20450;-84
2022/02/28 09:57:27;;;;;;;6.10;5.27;;;21.10;45.30;;;;;;5039805;28;20455;-84
2022/02/28 09:59:54;;;;;;;6.70;4.50;;;21.70;45.20;;;;;;5042026;28;20574;-84
2022/02/28 10:02:22;;;;;;;5.40;4.53;;;21.10;42.90;;;;;;5038001;28;20463;-84
2022/02/28 10:04:51;;;;;;;7.27;4.73;;;21.60;43.20;;;;;;5035932;28;20563;-83
2022/02/28 10:07:19;;;;;;;6.00;5.00;;;22.80;43.00;;;;;;5036973;28;20579;-84
2022/02/28 10:09:46;;;;;;;6.67;5.00;;;22.40;40.60;;;;;;5037389;28;20834;-83
2022/02/28 10:12:13;;;;;;;6.47;5.07;;;21.80;40.90;;;;;;5036695;28;21066;-84
2022/02/28 10:14:43;;;;;;;8.40;5.57;;;21.00;40.30;;;;;;5035230;28;20451;-84
2022/02/28 10:17:11;;;;;;;6.80;4.77;;;20.00;41.60;;;;;;5034929;28;20455;-85
2022/02/28 10:19:38;;;;;;;6.27;4.93;;;19.60;41.50;;;;;;5036779;28;20566;-82
2022/02/28 10:22:07;;;;;;;6.93;5.20;;;18.40;41.20;;;;;;5036255;28;20455;-83
2022/02/28 10:24:36;;;;;;;7.17;5.20;;;17.20;41.40;;;;;;5033309;28;20468;-83
2022/02/28 10:27:05;;;;;;;8.80;4.30;;;15.80;43.50;;;;;;5036368;28;20845;-84
2022/02/28 10:29:34;;;;;;;5.70;4.40;;;16.00;44.00;;;;;;5034788;28;20871;-83
2022/02/28 10:32:06;;;;;;;5.93;4.20;;;16.80;43.40;;;;;;5035452;28;20495;-84
2022/02/28 10:35:59;;;;;;;5.67;4.50;;;16.70;44.00;;;;;;5034871;28;20446;-84
2022/02/28 10:37:23;;;;;;;6.33;4.47;;;16.90;44.00;;;;;;5036756;28;20447;-83
2022/02/28 10:40:03;;;;;;;8.23;4.57;;;17.60;44.00;;;;;;5034015;28;20475;-83
2022/02/28 10:42:45;;;;;;;5.80;4.33;;;18.40;43.30;;;;;;5026623;28;20469;-82
2022/02/28 10:45:18;;;;;;;7.37;4.67;;;20.10;43.20;;;;;;5030733;28;20455;-82
2022/02/28 10:47:47;;;;;;;7.40;5.37;;;22.50;41.90;;;;;;5043663;28;20495;-84
2022/02/28 10:50:14;;;;;;;6.07;4.10;;;22.60;39.10;;;;;;5041801;28;20464;-82
2022/02/28 10:52:56;;;;;;;6.27;4.87;;;23.70;40.20;;;;;;5044199;28;20459;-84
2022/02/28 10:55:32;;;;;;;6.10;5.20;;;25.00;39.50;;;;;;5046257;28;20455;-81
2022/02/28 10:58:06;;;;;;;6.17;4.90;;;25.70;39.80;;;;;;5042124;28;20448;-82
2022/02/28 11:00:49;;;;;;;6.93;4.53;;;25.70;37.20;;;;;;5040547;28;20964;-82
2022/02/28 11:03:16;;;;;;;5.80;4.93;;;26.00;36.60;;;;;;5039620;28;20459;-83
2022/02/28 11:05:50;;;;;;;7.10;5.00;;;26.40;40.40;;;;;;5040839;28;20460;-84
2022/02/28 11:08:20;;;;;;;5.70;4.97;;;26.70;37.80;;;;;;5036604;28;20489;-83
2022/02/28 11:10:47;;;;;;;5.40;4.90;;;27.40;36.60;;;;;;5032202;28;21027;-81
2022/02/28 11:13:14;;;;;;;7.57;5.50;;;27.70;36.50;;;;;;5033948;28;20457;-80
2022/02/28 11:15:41;;;;;;;8.37;6.10;;;26.50;34.80;;;;;;5039806;28;20534;-81
2022/02/28 11:18:10;;;;;;;6.27;5.00;;;26.80;36.00;;;;;;5042834;28;20463;-83
2022/02/28 11:20:37;;;;;;;5.37;4.83;;;27.60;35.50;;;;;;5039946;28;20456;-82
2022/02/28 11:23:07;;;;;;;5.63;4.67;;;28.60;35.40;;;;;;5036127;28;20502;-82
2022/02/28 11:25:35;;;;;;;6.00;5.17;;;29.10;34.20;;;;;;5039141;28;20463;-81
2022/02/28 11:28:02;;;;;;;6.40;4.60;;;28.40;33.70;;;;;;5034370;28;20499;-82
2022/02/28 11:30:31;;;;;;;7.53;4.83;;;27.90;33.50;;;;;;5032573;28;20466;-83
2022/02/28 11:33:10;;;;;;;6.03;5.40;;;27.60;35.70;;;;;;5037739;28;20464;-82
2022/02/28 11:35:41;;;;;;;6.67;5.50;;;28.00;34.70;;;;;;5039413;28;20453;-83
2022/02/28 11:38:12;;;;;;;7.60;5.83;;;27.60;33.90;;;;;;5036640;28;20484;-82
2022/02/28 11:40:42;;;;;;;6.97;5.00;;;27.30;32.90;;;;;;5043715;28;20546;-83
2022/02/28 11:43:12;;;;;;;5.73;4.67;;;27.70;33.90;;;;;;5034313;28;20463;-81
2022/02/28 11:45:49;;;;;;;5.57;4.80;;;28.50;33.90;;;;;;5035239;28;20524;-81
2022/02/28 11:48:27;;;;;;;6.40;4.93;;;28.60;33.50;;;;;;5040896;28;20472;-83
2022/02/28 11:50:56;;;;;;;5.83;5.23;;;29.00;32.40;;;;;;5040831;28;20544;-82
2022/02/28 11:53:48;;;;;;;6.07;5.00;;;27.90;32.50;;;;;;5033792;28;20452;-82
2022/02/28 11:56:55;;;;;;;6.70;5.00;;;26.80;33.10;;;;;;5032737;28;21217;-84
2022/02/28 11:59:42;;;;;;;6.10;5.30;;;26.80;32.20;;;;;;5044576;28;20483;-82
2022/02/28 12:02:26;;;;;;;6.90;4.33;;;26.60;33.10;;;;;;5038258;28;20479;-83
2022/02/28 12:04:53;;;;;;;5.33;4.83;;;27.30;32.90;;;;;;5029807;28;20454;-82
2022/02/28 12:07:28;;;;;;;6.93;5.00;;;26.60;33.00;;;;;;5033507;28;20445;-83
2022/02/28 12:10:06;;;;;;;5.23;4.70;;;26.60;33.10;;;;;;5040242;28;20464;-81
2022/02/28 12:12:35;;;;;;;5.10;4.10;;;27.10;33.50;;;;;;5040561;28;20458;-82
2022/02/28 12:15:18;;;;;;;5.70;5.13;;;27.70;32.70;;;;;;5037895;28;20459;-81
2022/02/28 12:18:05;;;;;;;7.13;5.10;;;28.80;33.60;;;;;;5037713;28;20842;-80
2022/02/28 12:20:41;;;;;;;5.27;4.70;;;28.60;33.00;;;;;;5038701;28;20445;-82
2022/02/28 12:23:27;;;;;;;4.97;4.47;;;29.00;32.80;;;;;;5037907;28;20464;-83
2022/02/28 12:26:08;;;;;;;5.30;4.80;;;30.00;33.50;;;;;;5038927;28;20452;-81
2022/02/28 12:28:50;;;;;;;5.77;5.13;;;29.40;31.00;;;;;;5038590;28;20548;-83
2022/02/28 12:31:37;;;;;;;7.93;5.10;;;29.70;31.10;;;;;;5048755;28;20456;-81
2022/02/28 12:34:10;;;;;;;6.70;5.27;;;30.10;30.40;;;;;;5030414;28;20459;-84
2022/02/28 12:36:47;;;;;;;6.80;5.77;;;29.80;30.90;;;;;;5037669;28;20463;-84
2022/02/28 12:39:18;;;;;;;5.20;4.57;;;28.40;30.00;;;;;;5038671;28;21019;-81
2022/02/28 12:41:48;;;;;;;5.80;5.20;;;29.00;31.90;;;;;;5038219;28;20457;-83
2022/02/28 12:44:17;;;;;;;5.30;4.80;;;28.90;29.60;;;;;;5035253;28;20843;-82
2022/02/28 12:46:51;;;;;;;5.80;5.10;;;29.20;31.20;;;;;;5037281;28;20455;-84
2022/02/28 12:49:21;;;;;;;5.03;4.47;;;29.30;30.90;;;;;;5036310;28;20495;-83
2022/02/28 12:51:49;;;;;;;5.20;4.40;;;29.90;32.10;;;;;;5038751;28;20453;-83
2022/02/28 12:54:20;;;;;;;7.43;5.07;;;30.40;32.70;;;;;;5037188;28;20627;-84
2022/02/28 12:56:54;;;;;;;5.93;5.33;;;31.40;30.20;;;;;;5037585;28;20470;-82
2022/02/28 12:59:21;;;;;;;6.40;4.90;;;29.90;29.30;;;;;;5037274;28;21075;-82